Historique des mesures à Cassis (13260), France
Quotidien Résumé Fevrier 28, 2018 Unités:  Métrique    US   Métrique/US
« Précédent (Jour)
Suivant (Jour) »
Quotidien Hebdomadaire Mensuel Annuel Période au choix
  Maximum: Minimum: Moyenne:
Température: TemperatureC °C 2.1 °C 4.3 °C
Point de rosée: DewpointC °C -3.8 °C -1.5 °C
Humidité: Humidity % 61 % 62 %
Vitesse du vent: 0 km/h 0 km/h 11.7 km/h
Rafales: 0 km/h - -
Vent:- - ESE
Pression: PressurehPa hPa 999.2 hPa -
Précipitations: 0.0 mm    
Historical Graphs
 
 
Mesures pour : Fevrier 28, 2018
Heure Temperature Point de rosée Pression Vent Vitesse du vent Rafales Humidité Pluie (par heure) Conditions
TemperatureC °C DewpointC °C PressurehPa hPa Calm     Humidity % HourlyPrecipMM mm SoftwareType W/m2
00:12 2.4 °C -3.5 °C 1007.0 hPa WNW 2.3 km/h 5.1 km/h 65 % 0.0 mm open2300-1.11 W/m2
01:12 2.1 °C -3.8 °C 1006.3 hPa North 3.4 km/h 3.4 km/h 65 % 0.0 mm open2300-1.11 W/m2
02:12 2.2 °C -3.5 °C 1006.7 hPa North 5.1 km/h 5.1 km/h 66 % 0.0 mm open2300-1.11 W/m2
03:12 2.7 °C -3.2 °C 1005.6 hPa Calm   4.2 km/h 65 % 0.0 mm open2300-1.11 W/m2
04:12 3.2 °C -2.6 °C 1005.6 hPa North 3.4 km/h 3.4 km/h 66 % 0.0 mm open2300-1.11 W/m2
05:12 3.7 °C -2.5 °C 1005.0 hPa ENE 17.9 km/h 17.9 km/h 64 % 0.0 mm open2300-1.11 W/m2
06:12 3.9 °C -2.3 °C 1005.6 hPa Calm   10.3 km/h 64 % 0.0 mm open2300-1.11 W/m2
07:12 3.9 °C -2.6 °C 1004.6 hPa ESE 10.3 km/h 10.3 km/h 63 % 0.0 mm open2300-1.11 W/m2
08:12 4.1 °C -2.4 °C 1005.3 hPa ESE 9.8 km/h 9.8 km/h 63 % 0.0 mm open2300-1.11 W/m2
09:12 4.7 °C -2.0 °C 1004.6 hPa NW 10.3 km/h 10.3 km/h 62 % 0.0 mm open2300-1.11 W/m2
10:12 5.4 °C -1.6 °C 1004.6 hPa East 5.6 km/h 11.6 km/h 61 % 0.0 mm open2300-1.11 W/m2
11:12 5.1 °C -1.4 °C 1004.6 hPa ESE 10.3 km/h 12.2 km/h 63 % 0.0 mm open2300-1.11 W/m2
12:12 5.5 °C -0.8 °C 1005.0 hPa SSE 25.4 km/h 25.4 km/h 64 % 0.0 mm open2300-1.11 W/m2
13:12 5.8 °C -0.1 °C 1003.6 hPa East 11.6 km/h 17.4 km/h 66 % 0.0 mm open2300-1.11 W/m2
14:12 5.9 °C 0.0 °C 1002.9 hPa SE 16.3 km/h 30.7 km/h 66 % 0.0 mm open2300-1.11 W/m2
15:12 5.9 °C 0.0 °C 1002.3 hPa ESE 22 km/h 30.1 km/h 66 % 0.0 mm open2300-1.11 W/m2
16:12 5.8 °C -0.3 °C 1002.3 hPa NNE 19.6 km/h 19.6 km/h 65 % 0.0 mm open2300-1.11 W/m2
17:12 5.3 °C -0.6 °C 1001.9 hPa SE 14 km/h 15 km/h 66 % 0.0 mm open2300-1.11 W/m2
18:12 4.9 °C -0.9 °C 1001.2 hPa ESE 37.5 km/h 37.5 km/h 66 % 0.0 mm open2300-1.11 W/m2
19:12 4.9 °C -0.9 °C 1000.9 hPa East 14.5 km/h 20.9 km/h 66 % 0.0 mm open2300-1.11 W/m2
20:12 5.0 °C -1.1 °C 1000.6 hPa ESE 6.4 km/h 34.1 km/h 65 % 0.0 mm open2300-1.11 W/m2
21:12 4.9 °C -0.7 °C 999.5 hPa ESE 12.7 km/h 20.9 km/h 67 % 0.0 mm open2300-1.11 W/m2
22:12 5.1 °C -0.6 °C 999.2 hPa SE 7.6 km/h 47.3 km/h 67 % 0.0 mm open2300-1.11 W/m2
23:12 5.6 °C -0.3 °C 999.2 hPa ESE 27.2 km/h 37.5 km/h 66 % 0.0 mm open2300-1.11 W/m2
Observations météo à CASSIS
WU-History script by Weather Underground - 1 mb